Time;durP1;ratioP1;P1;durP2;ratioP2;P2;SDS_P1;SDS_P2;PMS_P1;PMS_P2;Temp;Humidity;BMP_temperature;BMP_pressure;BME280_temperature;BME280_humidity;BME280_pressure;Samples;Min_cycle;Max_cycle;Signal;HPM_P1;HPM_P2
2022/01/04 00:00:17;;;;;;;7.97;3.92;;;3.80;99.90;;;4.27;100.00;97467.84;4960989;28;119022;-72
2022/01/04 00:02:46;;;;;;;8.10;3.88;;;3.80;99.90;;;4.21;100.00;97461.06;4952612;28;130205;-72
2022/01/04 00:05:14;;;;;;;6.53;3.47;;;3.80;99.90;;;4.16;100.00;97469.28;4959460;28;130020;-72
2022/01/04 00:07:44;;;;;;;9.30;4.07;;;3.80;99.90;;;4.11;100.00;97466.75;4960354;28;120182;-72
2022/01/04 00:10:19;;;;;;;9.35;4.68;;;3.80;99.90;;;4.05;100.00;97468.03;4964663;28;118832;-73
2022/01/04 00:15:34;;;;;;;7.35;4.10;;;3.90;99.90;;;4.21;100.00;97466.44;4965848;28;129481;-73
2022/01/04 00:18:03;;;;;;;8.13;4.55;;;3.90;99.90;;;4.24;100.00;97468.47;4950076;28;118644;-74
2022/01/04 00:20:32;;;;;;;10.32;4.60;;;3.80;99.90;;;4.23;100.00;97469.56;4964555;28;119708;-73
2022/01/04 00:23:02;;;;;;;8.85;4.53;;;3.90;99.90;;;4.25;100.00;97461.97;4964513;28;130636;-74
2022/01/04 00:25:31;;;;;;;11.27;4.55;;;3.80;99.90;;;4.22;100.00;97462.63;4963765;28;129644;-73
2022/01/04 00:28:01;;;;;;;9.43;4.85;;;3.80;99.90;;;4.22;100.00;97457.25;4964201;28;121957;-73
2022/01/04 00:30:30;;;;;;;10.90;5.05;;;3.90;99.90;;;4.32;100.00;97467.66;4965115;28;121894;-73
2022/01/04 00:32:58;;;;;;;11.57;4.82;;;3.90;99.90;;;4.23;100.00;97461.53;4963682;28;130663;-73
2022/01/04 00:35:27;;;;;;;7.90;4.68;;;3.90;99.90;;;4.26;100.00;97466.25;4964500;28;128613;-73
2022/01/04 00:37:57;;;;;;;8.80;5.28;;;3.90;99.90;;;4.26;100.00;97457.41;4963872;28;120033;-73
2022/01/04 00:40:27;;;;;;;8.98;5.43;;;3.90;99.90;;;4.28;100.00;97464.03;4964688;28;119775;-73
2022/01/04 00:42:58;;;;;;;9.52;5.03;;;3.90;99.90;;;4.34;100.00;97469.25;4963758;28;130192;-73
2022/01/04 00:45:27;;;;;;;10.25;5.10;;;3.90;99.90;;;4.29;100.00;97462.94;4963164;28;129726;-73
2022/01/04 00:50:42;;;;;;;9.90;5.07;;;3.90;99.90;;;4.27;100.00;97459.78;4963328;28;119786;-73
2022/01/04 00:53:10;;;;;;;9.77;5.00;;;3.90;99.90;;;4.18;100.00;97452.88;4963331;28;128907;-73
2022/01/04 00:55:41;;;;;;;9.05;4.80;;;3.90;99.90;;;4.35;100.00;97452.00;4964800;28;129379;-73
2022/01/04 00:58:10;;;;;;;9.50;5.07;;;4.00;99.90;;;4.38;100.00;97456.75;4962851;28;119735;-73
2022/01/04 01:00:39;;;;;;;9.88;4.97;;;4.00;99.90;;;4.34;100.00;97453.13;4963253;28;120191;-73
2022/01/04 01:03:09;;;;;;;8.68;4.72;;;3.90;99.90;;;4.25;100.00;97461.19;4963611;28;130332;-74
2022/01/04 01:05:38;;;;;;;8.80;4.55;;;3.90;99.90;;;4.22;100.00;97462.63;4964341;28;131286;-73
2022/01/04 01:08:07;;;;;;;9.80;4.82;;;3.90;99.90;;;4.25;100.00;97461.97;4962568;28;119864;-74
2022/01/04 01:10:44;;;;;;;9.82;4.85;;;4.00;99.90;;;4.31;100.00;97455.34;4963769;28;119471;-73
2022/01/04 01:13:16;;;;;;;7.85;5.00;;;4.00;99.90;;;4.22;100.00;97454.56;4962997;28;130138;-73
2022/01/04 01:15:46;;;;;;;8.63;5.00;;;4.00;99.90;;;4.26;100.00;97457.41;4958930;28;129713;-73
2022/01/04 01:18:18;;;;;;;8.75;5.22;;;3.90;99.90;;;4.23;100.00;97458.06;4961333;28;122256;-73
2022/01/04 01:20:49;;;;;;;9.52;5.57;;;4.00;99.90;;;4.26;100.00;97462.78;4965375;28;121987;-73
2022/01/04 01:23:18;;;;;;;8.50;5.28;;;4.00;99.90;;;4.29;100.00;97462.94;4988783;28;130287;-73
2022/01/04 01:25:47;;;;;;;10.70;5.35;;;3.90;99.90;;;4.24;100.00;97460.41;4963666;28;129805;-73
2022/01/04 01:28:18;;;;;;;7.03;4.65;;;4.00;99.90;;;4.16;100.00;97453.19;4965073;28;119486;-74
2022/01/04 01:30:47;;;;;;;10.38;5.10;;;4.00;99.90;;;4.26;100.00;97458.19;4959501;28;119612;-74
2022/01/04 01:33:17;;;;;;;10.10;5.78;;;4.00;99.90;;;4.26;100.00;97460.88;4963337;28;129876;-74
2022/01/04 01:35:46;;;;;;;10.18;5.75;;;4.00;99.90;;;4.22;100.00;97461.84;4962009;28;129733;-74
2022/01/04 01:38:17;;;;;;;10.80;5.40;;;4.00;99.90;;;4.33;100.00;97457.69;4964404;28;119663;-73
2022/01/04 01:40:45;;;;;;;12.10;5.57;;;4.00;99.90;;;4.23;100.00;97458.84;4963268;28;120450;-74
2022/01/04 01:43:16;;;;;;;11.40;5.57;;;4.00;99.90;;;4.27;100.00;97457.09;4977161;28;128742;-73
2022/01/04 01:45:46;;;;;;;10.40;5.63;;;4.00;99.90;;;4.26;100.00;97446.69;4956401;28;129979;-74
2022/01/04 01:48:15;;;;;;;12.35;5.90;;;4.00;99.90;;;4.22;100.00;97457.25;4965608;28;120661;-74
2022/01/04 01:50:43;;;;;;;9.52;5.68;;;4.10;99.90;;;4.24;100.00;97459.63;4955856;28;119388;-74
2022/01/04 01:53:12;;;;;;;11.52;6.07;;;4.00;99.90;;;4.32;100.00;97467.66;4963008;28;129718;-74
2022/01/04 01:55:40;;;;;;;10.00;6.07;;;4.10;99.90;;;4.31;100.00;97460.69;4962217;28;131668;-74
2022/01/04 01:58:09;;;;;;;9.40;5.85;;;4.10;99.90;;;4.34;100.00;97463.88;4964058;28;119581;-74
2022/01/04 02:00:39;;;;;;;10.52;5.85;;;4.00;99.90;;;4.35;100.00;97460.06;4962897;28;118956;-74
2022/01/04 02:03:08;;;;;;;11.73;6.00;;;4.10;99.90;;;4.25;100.00;97467.34;4981017;28;129799;-74
2022/01/04 02:05:39;;;;;;;10.88;6.35;;;4.10;99.90;;;4.31;100.00;97471.44;4962360;28;129062;-74
2022/01/04 02:08:09;;;;;;;11.15;5.47;;;4.10;99.90;;;4.38;100.00;97475.53;4963138;28;120761;-74
2022/01/04 02:10:39;;;;;;;9.85;6.78;;;4.10;99.90;;;4.39;100.00;97471.75;4945776;28;121612;-73
2022/01/04 02:13:07;;;;;;;8.52;5.63;;;4.10;99.90;;;4.38;100.00;97464.78;4963980;28;129816;-74
2022/01/04 02:15:36;;;;;;;10.20;5.72;;;4.10;99.90;;;4.38;100.00;97454.06;4964274;28;130652;-74
2022/01/04 02:18:06;;;;;;;12.23;6.00;;;4.10;99.90;;;4.37;100.00;97474.75;4965010;28;118750;-74
2022/01/04 02:20:36;;;;;;;11.25;5.00;;;4.10;99.90;;;4.26;100.00;97474.31;4963011;28;117657;-74
2022/01/04 02:23:05;;;;;;;10.32;5.30;;;4.10;99.90;;;4.32;100.00;97472.25;4962685;28;129850;-73
2022/01/04 02:25:33;;;;;;;12.27;6.10;;;4.10;99.90;;;4.29;100.00;97473.66;4965807;28;129840;-73
2022/01/04 02:28:02;;;;;;;9.48;5.22;;;4.10;99.90;;;4.32;100.00;97473.03;4965325;28;119179;-74
2022/01/04 02:30:31;;;;;;;10.05;5.30;;;4.10;99.90;;;4.34;100.00;97474.63;4963131;28;120019;-74
2022/01/04 02:33:00;;;;;;;11.45;5.28;;;4.10;99.90;;;4.38;100.00;97480.91;4961981;28;130003;-75
2022/01/04 02:35:31;;;;;;;9.38;5.40;;;4.10;99.90;;;4.38;100.00;97480.91;4962482;28;129179;-74
2022/01/04 02:38:02;;;;;;;12.65;5.75;;;4.10;99.90;;;4.38;100.00;97476.34;4962944;28;119375;-74
2022/01/04 02:40:31;;;;;;;9.02;5.72;;;4.10;99.90;;;4.35;100.00;97465.44;4963010;28;120076;-75
2022/01/04 02:43:00;;;;;;;8.60;5.07;;;4.10;99.90;;;4.36;100.00;97467.81;4963019;28;129859;-74
2022/01/04 02:45:29;;;;;;;10.43;6.10;;;4.10;99.90;;;4.37;100.00;97479.34;4963053;28;130218;-74
2022/01/04 02:47:57;;;;;;;13.48;6.35;;;4.10;99.90;;;4.40;100.00;97473.34;4965362;28;119621;-75
2022/01/04 02:50:26;;;;;;;9.45;5.60;;;4.10;99.90;;;4.43;100.00;97472.69;4962853;28;119324;-75
2022/01/04 02:52:55;;;;;;;10.43;5.47;;;4.10;99.90;;;4.32;100.00;97464.97;4963250;28;129932;-75
2022/01/04 02:55:25;;;;;;;10.27;5.75;;;4.10;99.90;;;4.35;100.00;97460.06;4964671;28;129436;-75
2022/01/04 02:57:54;;;;;;;11.63;5.68;;;4.10;99.90;;;4.39;100.00;97466.38;4962363;28;122938;-75
2022/01/04 03:00:25;;;;;;;13.15;5.90;;;4.10;99.90;;;4.41;100.00;97464.16;4998164;28;121844;-75
2022/01/04 03:02:54;;;;;;;10.57;5.72;;;4.10;99.90;;;4.42;100.00;97466.53;4998296;28;129633;-76
2022/01/04 03:05:23;;;;;;;13.85;5.65;;;4.00;99.90;;;4.47;100.00;97470.94;4964428;28;129986;-77
2022/01/04 03:07:52;;;;;;;10.63;6.00;;;4.10;99.90;;;4.40;100.00;97463.38;4963428;28;119505;-75
2022/01/04 03:10:20;;;;;;;12.60;6.00;;;4.00;99.90;;;4.45;100.00;97465.09;4979392;28;119508;-76
2022/01/04 03:12:51;;;;;;;11.73;5.68;;;4.10;99.90;;;4.45;100.00;97465.09;4964281;28;130973;-75
2022/01/04 03:15:19;;;;;;;12.68;6.20;;;4.10;99.90;;;4.51;100.00;97463.81;4981254;28;129722;-76
2022/01/04 03:17:48;;;;;;;10.55;5.85;;;4.10;99.90;;;4.53;100.00;97458.91;4963055;28;119526;-76
2022/01/04 03:20:17;;;;;;;11.35;5.82;;;4.10;99.90;;;4.52;100.00;97462.72;4963020;28;119209;-75
2022/01/04 03:22:45;;;;;;;13.27;6.47;;;4.10;99.90;;;4.55;100.00;97459.41;4963522;28;129751;-75
2022/01/04 03:25:14;;;;;;;10.73;6.57;;;4.00;99.90;;;4.56;100.00;97463.63;4996663;28;129819;-76
2022/01/04 03:27:42;;;;;;;12.32;6.93;;;4.10;99.90;;;4.54;100.00;97467.78;4964848;28;121068;-74
2022/01/04 03:30:13;;;;;;;13.40;6.68;;;4.10;99.90;;;4.57;100.00;97467.91;4962702;28;119480;-74
2022/01/04 03:32:41;;;;;;;12.70;7.10;;;4.10;99.90;;;4.61;100.00;97476.91;4977326;28;130194;-75
2022/01/04 03:35:11;;;;;;;12.85;7.10;;;4.10;99.90;;;4.55;100.00;97475.50;4962215;28;130315;-74
2022/01/04 03:37:40;;;;;;;12.13;6.30;;;4.10;99.90;;;4.54;100.00;97479.28;4962238;28;119590;-75
2022/01/04 03:40:09;;;;;;;11.07;6.10;;;4.10;99.90;;;4.42;100.00;97477.25;4962467;28;119443;-74
2022/01/04 03:42:38;;;;;;;12.60;6.55;;;4.00;99.90;;;4.34;100.00;97478.09;4961998;28;128252;-74
2022/01/04 03:45:08;;;;;;;15.75;7.28;;;4.00;99.90;;;4.36;100.00;97467.81;4964563;28;129273;-74
2022/01/04 03:47:39;;;;;;;11.98;6.75;;;4.00;99.90;;;4.36;100.00;97472.38;4967574;28;122739;-75
2022/01/04 03:50:09;;;;;;;11.52;6.72;;;4.00;99.90;;;4.30;100.00;97463.72;4975759;28;120703;-74
2022/01/04 03:52:37;;;;;;;11.32;6.70;;;4.00;99.90;;;4.34;100.00;97469.25;4967494;28;129834;-75
2022/01/04 03:55:09;;;;;;;11.38;6.00;;;4.00;99.90;;;4.22;100.00;97473.34;4967361;28;129892;-75
2022/01/04 03:57:38;;;;;;;9.00;6.05;;;4.00;99.90;;;4.28;100.00;97474.75;4967737;28;119943;-75
2022/01/04 04:00:09;;;;;;;12.50;7.78;;;4.00;99.90;;;4.30;100.00;97479.81;4966871;28;118555;-74
2022/01/04 04:02:42;;;;;;;9.10;5.72;;;4.00;99.90;;;4.29;100.00;97479.03;4965730;28;129716;-75
2022/01/04 04:05:10;;;;;;;10.38;5.40;;;4.00;99.90;;;4.28;100.00;97488.19;4983492;28;129507;-75
2022/01/04 04:07:39;;;;;;;12.10;5.45;;;4.00;99.90;;;4.26;100.00;97490.41;4965305;28;119542;-74
2022/01/04 04:10:09;;;;;;;9.73;5.68;;;4.00;99.90;;;4.28;100.00;97485.50;4996630;28;119394;-74
2022/01/04 04:12:38;;;;;;;8.50;4.15;;;4.00;99.90;;;4.20;100.00;97491.69;4963751;28;130097;-75
2022/01/04 04:15:09;;;;;;;9.32;4.32;;;3.90;99.90;;;4.11;100.00;97493.59;4966096;28;129887;-75
2022/01/04 04:17:39;;;;;;;8.23;3.47;;;3.90;99.90;;;4.10;100.00;97498.19;4964071;28;120256;-74
2022/01/04 04:20:11;;;;;;;5.45;3.30;;;3.90;99.90;;;4.08;100.00;97494.22;4964703;28;119470;-74
2022/01/04 04:22:40;;;;;;;4.20;2.45;;;3.90;99.90;;;4.12;100.00;97495.97;4999207;28;129675;-75
2022/01/04 04:25:09;;;;;;;4.80;2.58;;;3.90;99.90;;;4.14;100.00;97498.34;4964546;28;129760;-75
2022/01/04 04:27:38;;;;;;;4.47;2.50;;;3.90;99.90;;;4.11;100.00;97498.97;4961823;28;119125;-74
2022/01/04 04:30:08;;;;;;;5.32;2.67;;;3.90;99.90;;;4.13;100.00;97496.78;4945283;28;119432;-73
2022/01/04 04:32:37;;;;;;;5.47;2.70;;;3.90;99.90;;;4.16;100.00;97493.44;4946811;28;129820;-74
2022/01/04 04:35:08;;;;;;;4.80;2.70;;;3.80;99.90;;;4.19;100.00;97490.13;4944775;28;129670;-74
2022/01/04 04:37:37;;;;;;;5.00;2.50;;;3.80;99.90;;;4.24;100.00;97491.84;4943864;28;121878;-73
2022/01/04 04:40:08;;;;;;;5.05;2.63;;;3.80;99.90;;;4.25;100.00;97488.81;4944960;28;122297;-74
2022/01/04 04:42:36;;;;;;;8.18;2.83;;;3.80;99.90;;;4.35;100.00;97486.91;4943946;28;129979;-75
2022/01/04 04:45:08;;;;;;;4.82;2.55;;;3.80;99.90;;;4.44;100.00;97490.38;4945310;28;129884;-76
2022/01/04 04:47:36;;;;;;;6.60;3.42;;;3.90;99.90;;;4.49;100.00;97492.91;4947842;28;119945;-77
2022/01/04 04:50:08;;;;;;;5.05;2.78;;;3.90;99.90;;;4.54;100.00;97492.72;4945222;28;119963;-80
2022/01/04 04:52:37;;;;;;;6.50;3.58;;;3.80;99.90;;;4.57;100.00;97489.41;4962952;28;129269;-81
2022/01/04 04:55:08;;;;;;;6.70;3.63;;;3.80;99.90;;;4.53;100.00;97487.69;4946013;28;129754;-79
2022/01/04 04:57:37;;;;;;;5.70;3.30;;;3.80;99.90;;;4.51;100.00;97488.00;4929617;28;118756;-80
2022/01/04 05:00:09;;;;;;;7.28;3.60;;;3.90;99.90;;;4.56;100.00;97482.44;4944705;28;118847;-80
2022/01/04 05:02:38;;;;;;;10.52;3.95;;;3.90;99.90;;;4.49;100.00;97487.53;4928721;28;128241;-81
2022/01/04 05:05:10;;;;;;;7.68;3.35;;;3.80;99.90;;;4.40;100.00;97489.44;4949735;28;130357;-81
2022/01/04 05:07:38;;;;;;;6.72;3.33;;;3.90;99.90;;;4.41;100.00;97483.75;4944410;28;119813;-80
2022/01/04 05:10:09;;;;;;;6.63;3.38;;;3.90;99.90;;;4.34;100.00;97485.38;4945005;28;119725;-81
2022/01/04 05:12:38;;;;;;;7.47;3.20;;;3.90;99.90;;;4.36;100.00;97481.22;4929465;28;128794;-81
2022/01/04 05:15:08;;;;;;;5.95;3.00;;;3.90;99.90;;;4.38;100.00;97484.41;4923884;28;130161;-81
2022/01/04 05:17:37;;;;;;;7.10;3.67;;;3.90;99.90;;;4.42;100.00;97490.69;4943767;28;118698;-81
2022/01/04 05:20:09;;;;;;;5.93;3.58;;;3.90;99.90;;;4.42;100.00;97493.38;4930948;28;118738;-80
2022/01/04 05:22:37;;;;;;;10.98;4.15;;;3.90;99.90;;;4.43;100.00;97489.59;4944360;28;128173;-81
2022/01/04 05:25:07;;;;;;;8.63;3.67;;;3.90;99.90;;;4.53;100.00;97493.81;4942968;28;129596;-80
2022/01/04 05:27:36;;;;;;;7.88;3.85;;;4.00;99.90;;;4.52;100.00;97508.38;4929066;28;121708;-80
2022/01/04 05:30:07;;;;;;;12.45;4.05;;;4.00;99.90;;;4.49;100.00;97492.91;4944644;28;121863;-81
2022/01/04 05:32:35;;;;;;;11.57;4.88;;;4.00;99.90;;;4.41;100.00;97496.38;4925593;28;130810;-80
2022/01/04 05:35:04;;;;;;;8.05;4.32;;;4.00;99.90;;;4.45;100.00;97494.66;4946386;28;130572;-80
2022/01/04 05:37:34;;;;;;;10.43;7.10;;;4.10;99.90;;;4.48;100.00;97496.69;4944507;28;119603;-80
2022/01/04 05:40:04;;;;;;;8.73;4.80;;;4.10;99.90;;;4.46;100.00;97501.59;4925747;28;119573;-81
2022/01/04 05:42:33;;;;;;;11.30;5.28;;;4.10;99.90;;;4.43;100.00;97504.94;4937379;28;129742;-81
2022/01/04 05:45:01;;;;;;;12.65;5.80;;;4.10;99.90;;;4.40;100.00;97500.19;4946221;28;129508;-81
2022/01/04 05:47:30;;;;;;;10.07;5.07;;;4.10;99.90;;;4.46;100.00;97512.34;4947620;28;119438;-80
2022/01/04 05:49:58;;;;;;;11.68;8.48;;;4.10;99.90;;;4.49;100.00;97503.66;4944822;28;119640;-80
2022/01/04 05:52:27;;;;;;;11.70;6.53;;;4.10;99.90;;;4.44;100.00;97511.88;4956936;28;130370;-80
2022/01/04 05:54:56;;;;;;;11.15;6.63;;;4.10;99.90;;;4.46;100.00;97515.03;4930038;28;128895;-80
2022/01/04 05:57:25;;;;;;;17.02;6.60;;;4.10;99.90;;;4.47;100.00;97521.97;4929972;28;119255;-80
2022/01/04 05:59:54;;;;;;;17.60;8.45;;;4.20;99.90;;;4.43;100.00;97526.41;4945000;28;119438;-80
2022/01/04 06:02:22;;;;;;;14.70;7.05;;;4.20;99.90;;;4.47;100.00;97527.34;4945300;28;129707;-78
2022/01/04 06:04:51;;;;;;;28.60;17.42;;;4.20;99.90;;;4.48;100.00;97529.72;4944614;28;130659;-80
2022/01/04 06:07:20;;;;;;;19.45;9.68;;;4.20;99.90;;;4.47;100.00;97533.53;4929551;28;119327;-78
2022/01/04 06:09:52;;;;;;;15.40;8.15;;;4.20;99.90;;;4.48;100.00;97534.31;4944326;28;119471;-78
2022/01/04 06:15:17;;;;;;;19.55;7.53;;;4.30;99.90;;;4.49;100.00;97541.25;4924596;28;129487;-79
2022/01/04 06:17:49;;;;;;;15.13;8.73;;;4.30;99.90;;;4.54;100.00;97543.78;4937790;28;123013;-78
2022/01/04 06:20:21;;;;;;;21.15;9.80;;;4.30;99.90;;;4.41;100.00;97547.41;4942428;28;121960;-81
2022/01/04 06:22:51;;;;;;;23.23;10.35;;;4.30;99.90;;;4.45;100.00;97551.06;4945644;28;129233;-79
2022/01/04 06:25:22;;;;;;;21.92;8.70;;;4.30;99.90;;;4.46;100.00;97541.91;4943808;28;129782;-80
2022/01/04 06:27:56;;;;;;;21.67;11.00;;;4.30;99.90;;;4.40;100.00;97548.53;4940894;28;119794;-79
2022/01/04 06:30:25;;;;;;;19.42;8.68;;;4.30;99.90;;;4.40;100.00;97553.91;4942280;28;119554;-79
2022/01/04 06:32:54;;;;;;;21.85;11.55;;;4.30;99.90;;;4.45;100.00;97556.44;4943325;28;130649;-80
2022/01/04 06:35:25;;;;;;;23.67;12.68;;;4.30;99.90;;;4.51;100.00;97563.22;4961446;28;129311;-80
2022/01/04 06:37:53;;;;;;;22.27;9.80;;;4.30;99.90;;;4.43;100.00;97564.03;4939469;28;119715;-79
2022/01/04 06:40:21;;;;;;;27.42;13.52;;;4.30;99.90;;;4.47;100.00;97559.56;4943693;28;119415;-79
2022/01/04 06:42:51;;;;;;;30.05;17.65;;;4.30;99.90;;;4.49;100.00;97566.22;4942629;28;130608;-81
2022/01/04 06:45:20;;;;;;;28.73;13.40;;;4.30;99.90;;;4.47;100.00;97559.56;4942245;28;128642;-79
2022/01/04 06:47:49;;;;;;;30.80;17.25;;;4.30;99.90;;;4.44;100.00;97570.94;4937402;28;118801;-80
2022/01/04 06:50:18;;;;;;;31.48;13.68;;;4.30;99.90;;;4.48;100.00;97561.16;4942044;28;119506;-80
2022/01/04 06:52:47;;;;;;;23.27;11.32;;;4.30;99.90;;;4.56;100.00;97563.03;4928806;28;129121;-80
2022/01/04 06:55:16;;;;;;;20.13;9.65;;;4.30;99.90;;;4.61;100.00;97570.94;4943261;28;130214;-79
2022/01/04 06:57:45;;;;;;;20.52;10.50;;;4.30;99.90;;;4.60;100.00;97564.00;4961818;28;119098;-80
2022/01/04 07:00:16;;;;;;;30.27;13.43;;;4.20;99.90;;;4.56;100.00;97568.41;4942318;28;119786;-80
2022/01/04 07:02:45;;;;;;;19.33;9.25;;;4.20;99.90;;;4.64;100.00;97570.31;4922262;28;129143;-79
2022/01/04 07:05:14;;;;;;;28.33;10.45;;;4.30;99.90;;;4.68;100.00;97573.91;4942889;28;129103;-79
2022/01/04 07:07:42;;;;;;;22.33;9.32;;;4.30;99.90;;;4.68;100.00;97573.91;4940989;28;121256;-79
2022/01/04 07:10:11;;;;;;;31.92;9.70;;;4.20;99.90;;;4.67;100.00;97575.06;4954745;28;122367;-79
2022/01/04 07:12:40;;;;;;;23.52;9.30;;;4.20;99.90;;;4.66;100.00;97581.53;4942919;28;129771;-79
2022/01/04 07:15:10;;;;;;;27.70;13.18;;;4.20;99.90;;;4.65;100.00;97577.25;4928845;28;129065;-79
2022/01/04 07:17:43;;;;;;;32.08;9.43;;;4.20;99.90;;;4.62;100.00;97583.25;4943601;28;119240;-88
2022/01/04 07:20:13;;;;;;;27.20;9.35;;;4.20;99.90;;;4.70;100.00;97583.56;4917170;28;119623;-81
2022/01/04 07:22:41;;;;;;;23.08;9.60;;;4.20;99.90;;;4.79;100.00;97573.59;4945314;28;129633;-84
2022/01/04 07:25:11;;;;;;;24.77;10.25;;;4.30;99.90;;;4.77;100.00;97576.59;4918311;28;129146;-86
2022/01/04 07:27:40;;;;;;;28.30;10.48;;;4.30;99.90;;;4.75;100.00;97580.72;4929928;28;118853;-85
2022/01/04 07:30:10;;;;;;;29.75;11.57;;;4.30;99.90;;;4.76;100.00;97575.00;4929325;28;118848;-85
2022/01/04 07:32:41;;;;;;;19.38;9.82;;;4.30;99.90;;;4.79;100.00;97584.34;4927735;28;129376;-86
2022/01/04 07:35:10;;;;;;;20.70;9.73;;;4.30;99.90;;;4.83;100.00;97585.25;4960959;28;129470;-87
2022/01/04 07:37:39;;;;;;;23.73;9.20;;;4.30;99.90;;;4.90;100.00;97582.09;4946423;28;119007;-86
2022/01/04 07:40:09;;;;;;;33.05;10.27;;;4.30;99.90;;;4.93;100.00;97576.88;4926148;28;117779;-87
2022/01/04 07:42:38;;;;;;;30.13;10.77;;;4.40;99.90;;;4.76;100.00;97582.28;4929061;28;128875;-83
2022/01/04 07:45:08;;;;;;;23.20;9.70;;;4.30;99.90;;;4.78;100.00;97585.44;4920421;28;128908;-83
2022/01/04 07:47:37;;;;;;;24.75;9.77;;;4.30;99.90;;;4.71;100.00;97579.78;4944199;28;119630;-83
2022/01/04 07:50:09;;;;;;;25.55;11.05;;;4.30;99.90;;;4.72;100.00;97586.72;4944070;28;118798;-85
2022/01/04 07:52:38;;;;;;;27.17;10.55;;;4.30;99.90;;;4.71;100.00;97583.25;4934002;28;129718;-84
2022/01/04 07:55:08;;;;;;;22.38;11.10;;;4.20;99.90;;;4.80;100.00;97583.22;4927796;28;128789;-82
2022/01/04 07:57:38;;;;;;;27.60;11.30;;;4.30;99.90;;;4.83;100.00;97582.56;4927625;28;121488;-82
2022/01/04 08:00:09;;;;;;;26.35;10.18;;;4.30;99.90;;;4.84;100.00;97578.78;4960961;28;121529;-81
2022/01/04 08:02:43;;;;;;;28.35;12.02;;;4.30;99.90;;;4.84;100.00;97578.78;4943545;28;130135;-79
2022/01/04 08:05:14;;;;;;;27.95;10.93;;;4.40;99.90;;;4.85;100.00;97585.75;4941661;28;129849;-83
2022/01/04 08:07:56;;;;;;;26.90;10.15;;;4.40;99.90;;;4.83;100.00;97578.00;4935666;28;118846;-84
2022/01/04 08:10:24;;;;;;;33.47;12.43;;;4.40;99.90;;;4.90;100.00;97577.50;4942551;28;120098;-83
2022/01/04 08:12:53;;;;;;;42.30;18.40;;;4.40;99.90;;;5.03;100.00;97576.53;4925265;28;130047;-82
2022/01/04 08:15:23;;;;;;;25.80;10.40;;;4.50;99.90;;;5.10;100.00;97586.00;4921841;28;129437;-83
2022/01/04 08:17:51;;;;;;;26.63;11.40;;;4.40;99.90;;;5.22;100.00;97588.81;4928605;28;118912;-82
2022/01/04 08:20:22;;;;;;;19.92;9.55;;;4.50;99.90;;;5.23;100.00;97587.66;4928435;28;118744;-83
2022/01/04 08:22:57;;;;;;;28.75;8.60;;;4.50;99.90;;;5.14;100.00;97586.91;4940977;28;129939;-83
2022/01/04 08:25:25;;;;;;;26.50;10.52;;;4.50;99.90;;;5.20;100.00;97591.00;4927386;28;128744;-83
2022/01/04 08:27:54;;;;;;;22.88;9.90;;;4.50;99.90;;;5.12;100.00;97592.63;4943357;28;119230;-83
2022/01/04 08:30:23;;;;;;;27.08;10.30;;;4.50;99.90;;;5.13;100.00;97593.44;4932292;28;119966;-77
2022/01/04 08:32:53;;;;;;;26.63;9.73;;;4.50;99.90;;;5.10;100.00;97591.38;4942448;28;129699;-82
2022/01/04 08:35:23;;;;;;;24.40;9.23;;;4.50;99.90;;;5.08;100.00;97598.97;4943613;28;129986;-81
2022/01/04 08:37:52;;;;;;;22.42;10.23;;;4.50;99.90;;;5.08;100.00;97594.38;4931578;28;118788;-80
2022/01/04 08:40:20;;;;;;;24.48;8.90;;;4.50;99.90;;;5.20;100.00;97602.56;4945495;28;119349;-80
2022/01/04 08:42:49;;;;;;;17.52;8.95;;;4.50;99.90;;;5.28;100.00;97592.88;4945052;28;129830;-80
2022/01/04 08:45:24;;;;;;;21.50;8.32;;;4.60;99.90;;;5.38;100.00;97591.75;4944753;28;130227;-80
2022/01/04 08:47:54;;;;;;;20.75;7.65;;;4.60;99.90;;;5.30;100.00;97593.34;4945021;28;122505;-81
2022/01/04 08:50:24;;;;;;;20.30;8.40;;;4.60;99.90;;;5.25;100.00;97596.22;4944126;28;121935;-80
2022/01/04 08:52:54;;;;;;;21.45;8.43;;;4.60;99.90;;;5.19;100.00;97594.81;4944202;28;130223;-81
2022/01/04 08:55:23;;;;;;;22.35;9.05;;;4.60;99.90;;;5.17;100.00;97599.72;4945341;28;129403;-81
2022/01/04 08:57:52;;;;;;;20.08;9.35;;;4.60;99.90;;;5.36;100.00;97602.81;4946666;28;119850;-80
2022/01/04 09:00:21;;;;;;;20.25;8.75;;;4.70;99.90;;;5.59;99.39;97591.78;4960209;28;119220;-80
2022/01/04 09:02:50;;;;;;;17.52;7.75;;;4.80;99.90;;;5.80;98.04;97596.41;4930996;28;129044;-81
2022/01/04 09:05:19;;;;;;;20.67;7.95;;;4.90;99.90;;;5.89;97.35;97594.44;4914867;28;129278;-80
2022/01/04 09:07:50;;;;;;;19.95;7.60;;;5.00;99.90;;;5.74;96.43;97596.59;4945922;28;119734;-83
2022/01/04 09:10:18;;;;;;;14.13;6.13;;;4.90;98.30;;;5.66;96.32;97597.44;4930544;28;118373;-82
2022/01/04 09:12:55;;;;;;;17.35;7.15;;;4.90;95.30;;;5.66;96.31;97600.13;4958720;28;130072;-83
2022/01/04 09:15:56;;;;;;;18.65;6.63;;;5.00;94.60;;;5.61;95.68;97602.22;4961186;28;129083;-81
2022/01/04 09:21:10;;;;;;;13.77;5.85;;;5.00;88.10;;;5.79;95.13;97594.84;4964439;28;119353;-80
2022/01/04 09:23:40;;;;;;;16.73;6.55;;;5.10;85.20;;;5.82;95.31;97592.28;4962089;28;128581;-82
2022/01/04 09:26:11;;;;;;;15.48;6.25;;;5.10;84.20;;;5.98;95.67;97597.13;4930418;28;129239;-81
2022/01/04 09:28:40;;;;;;;19.63;8.73;;;5.20;88.30;;;5.83;95.96;97601.13;4946204;28;119466;-84
2022/01/04 09:31:08;;;;;;;32.30;20.63;;;5.20;87.50;;;5.80;95.75;97594.53;4930981;28;119352;-81
2022/01/04 09:33:48;;;;;;;27.58;8.80;;;5.10;89.50;;;5.79;96.05;97600.22;4946450;28;130560;-82
2022/01/04 09:36:17;;;;;;;22.13;8.73;;;5.10;90.20;;;5.86;96.08;97590.53;4929891;28;129166;-81
2022/01/04 09:38:47;;;;;;;17.05;8.23;;;5.10;90.90;;;6.04;94.92;97596.59;4913606;28;121935;-81
2022/01/04 09:41:20;;;;;;;16.70;7.45;;;5.10;90.10;;;6.05;94.56;97582.03;4940403;28;121810;-81
2022/01/04 09:43:50;;;;;;;25.08;14.25;;;5.20;89.80;;;5.84;95.88;97587.34;4945634;28;129405;-80
2022/01/04 09:46:20;;;;;;;14.73;7.78;;;5.20;90.10;;;6.12;94.69;97581.50;4930009;28;129251;-82
2022/01/04 09:48:48;;;;;;;15.05;7.80;;;5.20;88.30;;;6.26;94.13;97578.53;4908271;28;118473;-84
2022/01/04 09:51:18;;;;;;;18.77;9.52;;;5.30;89.60;;;6.30;93.80;97577.53;4946771;28;119177;-79
2022/01/04 09:53:48;;;;;;;18.25;13.23;;;5.40;86.40;;;6.26;93.82;97587.41;4930127;28;129475;-85
2022/01/04 09:56:17;;;;;;;18.55;7.28;;;5.40;81.70;;;6.52;92.23;97577.53;4931530;28;128753;-86
2022/01/04 09:58:48;;;;;;;16.30;7.07;;;5.50;82.30;;;6.56;90.92;97581.13;4947041;28;119535;-86
2022/01/04 10:01:25;;;;;;;15.48;6.82;;;5.40;75.40;;;6.60;91.27;97579.34;4931759;28;119234;-84
2022/01/04 10:03:54;;;;;;;16.33;7.57;;;5.50;76.80;;;6.66;91.50;97570.72;4939870;28;128789;-82
2022/01/04 10:06:25;;;;;;;17.10;8.65;;;5.60;75.10;;;6.73;90.21;97566.69;4932811;28;129023;-83
2022/01/04 10:09:00;;;;;;;13.68;6.70;;;5.60;70.30;;;6.53;90.60;97568.31;4944179;28;119557;-83
2022/01/04 10:11:35;;;;;;;18.55;6.72;;;5.60;69.30;;;6.62;89.67;97567.13;4944281;28;119132;-84
2022/01/04 10:14:27;;;;;;;15.88;7.15;;;5.50;67.00;;;6.46;91.01;97572.31;4928752;28;128957;-83
2022/01/04 10:16:58;;;;;;;16.40;6.85;;;5.50;68.70;;;6.35;91.23;97568.47;4931862;28;129887;-83
2022/01/04 10:19:32;;;;;;;15.38;6.63;;;5.30;69.60;;;6.26;91.88;97565.06;4943414;28;118331;-83
2022/01/04 10:22:31;;;;;;;14.15;6.10;;;5.20;73.10;;;6.11;92.36;97569.94;4929111;28;118477;-84
2022/01/04 10:25:18;;;;;;;17.17;7.25;;;5.10;75.80;;;6.17;92.64;97567.84;4938374;28;129785;-83
2022/01/04 10:27:48;;;;;;;17.60;7.75;;;5.10;81.00;;;6.17;92.71;97561.66;4936839;28;130312;-82
2022/01/04 10:30:23;;;;;;;12.50;7.00;;;5.20;82.70;;;6.45;92.06;97562.69;4957709;28;120046;-83
2022/01/04 10:32:58;;;;;;;15.18;6.57;;;5.30;85.70;;;6.80;90.12;97556.16;4927269;28;121524;-83
2022/01/04 10:35:32;;;;;;;12.77;7.40;;;5.50;79.70;;;6.91;89.46;97567.31;4942440;28;129221;-83
2022/01/04 10:38:08;;;;;;;13.50;6.13;;;5.60;73.90;;;6.91;89.88;97564.59;4940043;28;130303;-83